createdAt,value
2022-10-07T00:02:36.297Z,80.1
2022-10-07T00:03:50.522Z,79.9
2022-10-07T00:05:12.765Z,79.8
2022-10-07T00:06:26.939Z,80
2022-10-07T00:07:41.026Z,80.1
2022-10-07T00:08:51.919Z,80.1
2022-10-07T00:10:02.742Z,80.1
2022-10-07T00:11:16.854Z,80.2
2022-10-07T00:12:31.050Z,80.1
2022-10-07T00:14:59.289Z,80.1
2022-10-07T00:16:13.492Z,80.2
2022-10-07T00:17:35.697Z,80.3
2022-10-07T00:18:49.875Z,80.3
2022-10-07T00:20:04.012Z,80.3
2022-10-07T00:21:14.844Z,80.1
2022-10-07T00:22:25.735Z,80
2022-10-07T00:23:39.805Z,80
2022-10-07T00:24:53.956Z,80.1
2022-10-07T00:28:36.378Z,80.3
2022-10-07T00:29:50.477Z,80.4
2022-10-07T00:31:04.642Z,80.4
2022-10-07T00:32:18.741Z,80.5
2022-10-07T00:33:32.862Z,80.6
2022-10-07T00:34:43.723Z,80.6
2022-10-07T00:35:54.577Z,80.6
2022-10-07T00:37:08.726Z,80.6
2022-10-07T00:38:22.871Z,80.8
2022-10-07T00:39:36.990Z,80.9
2022-10-07T00:40:51.091Z,81
2022-10-07T00:42:05.242Z,81.1
2022-10-07T00:43:19.370Z,81.2
2022-10-07T00:44:33.483Z,81.2
2022-10-07T00:45:47.633Z,81.1
2022-10-07T00:47:01.783Z,81
2022-10-07T00:48:12.590Z,80.5
2022-10-07T00:49:23.489Z,80
2022-10-07T00:50:37.629Z,80
2022-10-07T00:51:51.705Z,80.2
2022-10-07T00:53:05.968Z,80.3
2022-10-07T00:54:28.186Z,80.3
2022-10-07T00:55:42.311Z,80.3
2022-10-07T00:56:56.469Z,80.3
2022-10-07T00:58:10.553Z,79.8
2022-10-07T00:59:24.694Z,79.8
2022-10-07T01:01:46.415Z,80.3
2022-10-07T01:03:00.551Z,80.4
2022-10-07T01:05:28.813Z,80.4
2022-10-07T01:06:42.952Z,80.1
2022-10-07T01:07:57.106Z,79.7
2022-10-07T01:09:11.302Z,80
2022-10-07T01:10:33.517Z,80.2
2022-10-07T01:11:47.684Z,80.4
2022-10-07T01:12:58.482Z,80.4
2022-10-07T01:14:09.395Z,80.4
2022-10-07T01:15:23.535Z,80.5
2022-10-07T01:16:37.644Z,80.7
2022-10-07T01:17:51.746Z,80.7
2022-10-07T01:19:05.876Z,80.7
2022-10-07T01:20:20.042Z,80.8
2022-10-07T01:22:48.258Z,80.8
2022-10-07T01:25:16.499Z,81
2022-10-07T01:26:27.401Z,81.2
2022-10-07T01:27:37.863Z,81.3
2022-10-07T01:28:51.930Z,81.5
2022-10-07T01:30:06.087Z,81.2
2022-10-07T01:31:20.179Z,81.3
2022-10-07T01:32:34.346Z,81
2022-10-07T01:33:48.454Z,81
2022-10-07T01:35:02.585Z,81.2
2022-10-07T01:37:30.832Z,80.8
2022-10-07T01:38:44.996Z,80.8
2022-10-07T01:39:55.874Z,80.7
2022-10-07T01:41:06.752Z,80.7
2022-10-07T01:42:20.882Z,80.5
2022-10-07T01:43:34.947Z,80.4
2022-10-07T01:44:49.118Z,80.4
2022-10-07T01:46:03.199Z,80.5
2022-10-07T01:48:31.507Z,80.7
2022-10-07T01:49:45.603Z,80.5
2022-10-07T01:50:59.763Z,80.2
2022-10-07T01:52:13.898Z,80.2
2022-10-07T01:53:24.761Z,80.5
2022-10-07T01:54:35.600Z,80.4
2022-10-07T01:55:49.752Z,80.4
2022-10-07T01:57:03.869Z,80.5
2022-10-07T01:58:18.026Z,80.4
2022-10-07T01:59:32.109Z,80.4
2022-10-07T02:00:46.216Z,80.3
2022-10-07T02:02:00.403Z,80.3
2022-10-07T02:05:42.744Z,80.4
2022-10-07T02:08:04.491Z,80.5
2022-10-07T02:09:18.614Z,80.7
2022-10-07T02:10:32.730Z,80.7
2022-10-07T02:11:46.872Z,80.8
2022-10-07T02:13:01.002Z,80.8
2022-10-07T02:14:15.119Z,80.6
2022-10-07T02:15:29.264Z,80.8
2022-10-07T02:16:43.408Z,81
2022-10-07T02:17:57.545Z,81.2
2022-10-07T02:20:22.520Z,81.5
2022-10-07T02:21:33.385Z,81.5
2022-10-07T02:22:47.526Z,81.5
2022-10-07T02:25:15.754Z,81.5
2022-10-07T02:26:29.877Z,81.6
2022-10-07T02:27:44.047Z,81.5
2022-10-07T02:28:58.123Z,81.5
2022-10-07T02:31:26.424Z,81.3
2022-10-07T02:32:40.525Z,81.2
2022-10-07T02:33:51.432Z,81.2
2022-10-07T02:35:02.254Z,81
2022-10-07T02:38:44.664Z,81
2022-10-07T02:39:58.815Z,81
2022-10-07T02:41:12.895Z,80.8
2022-10-07T02:42:27.010Z,81.1
2022-10-07T02:43:41.192Z,81.2
2022-10-07T02:44:55.311Z,81.2
2022-10-07T02:46:09.418Z,81.2
2022-10-07T02:47:20.300Z,81.1
2022-10-07T02:48:31.181Z,81
2022-10-07T02:49:45.300Z,80.8
2022-10-07T02:50:59.430Z,80.9
2022-10-07T02:52:13.571Z,81
2022-10-07T02:53:27.657Z,81.1
2022-10-07T02:54:41.813Z,81.1
2022-10-07T02:58:24.196Z,81.2
2022-10-07T02:59:38.306Z,81.1
2022-10-07T03:00:49.155Z,81.3
2022-10-07T03:02:00.041Z,81.3
2022-10-07T03:03:14.209Z,81.1
2022-10-07T03:04:28.298Z,81
2022-10-07T03:05:42.424Z,80.9
2022-10-07T03:06:56.548Z,80.9
2022-10-07T03:08:10.654Z,81.1
2022-10-07T03:09:24.831Z,81
2022-10-07T03:10:38.925Z,81
2022-10-07T03:11:53.095Z,81.3
2022-10-07T03:14:18.093Z,81.6
2022-10-07T03:15:28.907Z,81.6
2022-10-07T03:16:43.070Z,81.7
2022-10-07T03:17:57.200Z,81.8
2022-10-07T03:19:11.319Z,81.7
2022-10-07T03:20:25.471Z,81.7
2022-10-07T03:21:39.607Z,81.6
2022-10-07T03:22:53.722Z,81.6
2022-10-07T03:24:07.955Z,81.4
2022-10-07T03:26:40.997Z,81.8
2022-10-07T03:27:51.908Z,81.7
2022-10-07T03:29:06.044Z,81.7
2022-10-07T03:30:20.140Z,81.8
2022-10-07T03:31:34.299Z,81.9
2022-10-07T03:32:48.426Z,81.9
2022-10-07T03:35:16.622Z,82
2022-10-07T03:36:30.753Z,82
2022-10-07T03:37:44.940Z,81.7
2022-10-07T03:38:59.019Z,81.8
2022-10-07T03:40:09.939Z,81.8
2022-10-07T03:41:20.375Z,81.7
2022-10-07T03:42:34.467Z,81.5
2022-10-07T03:43:48.603Z,81.5
2022-10-07T03:46:16.834Z,81.7
2022-10-07T03:47:31.038Z,81.8
2022-10-07T03:48:53.327Z,81.8
2022-10-07T03:51:21.589Z,81.7
2022-10-07T03:52:32.406Z,81.8
2022-10-07T03:53:43.321Z,81.9
2022-10-07T03:54:57.440Z,82
2022-10-07T03:56:11.510Z,82
2022-10-07T03:58:39.830Z,81.8
2022-10-07T03:59:53.909Z,81.8
2022-10-07T04:02:22.172Z,81.9
2022-10-07T04:04:50.438Z,82.2
2022-10-07T04:06:00.856Z,82.4
2022-10-07T04:07:11.758Z,82.3
2022-10-07T04:08:25.841Z,82.3
2022-10-07T04:09:39.977Z,82.4
2022-10-07T04:10:54.200Z,82.1
2022-10-07T04:12:16.471Z,82.2
2022-10-07T04:13:30.577Z,82.1
2022-10-07T04:14:44.711Z,82.1
2022-10-07T04:15:58.858Z,82.3
2022-10-07T04:19:34.685Z,82.7
2022-10-07T04:20:48.846Z,82.7
2022-10-07T04:24:31.181Z,82.6
2022-10-07T04:25:45.315Z,82.6
2022-10-07T04:26:59.470Z,82.3
2022-10-07T04:28:13.615Z,82.4
2022-10-07T04:29:27.682Z,82.4
2022-10-07T04:30:41.816Z,82.5
2022-10-07T04:31:52.736Z,82.6
2022-10-07T04:33:03.544Z,82.6
2022-10-07T04:34:17.673Z,82.6
2022-10-07T04:35:31.797Z,82.7
2022-10-07T04:36:45.979Z,82.8
2022-10-07T04:38:00.084Z,82.9
2022-10-07T04:39:14.209Z,82.8
2022-10-07T04:40:28.325Z,82.6
2022-10-07T04:41:42.459Z,82.7
2022-10-07T04:44:10.739Z,83
2022-10-07T04:45:21.144Z,83
2022-10-07T04:46:32.000Z,83
2022-10-07T04:49:00.319Z,82.9
2022-10-07T04:50:14.453Z,82.9
2022-10-07T04:52:42.656Z,83
2022-10-07T04:53:56.832Z,83
2022-10-07T04:55:10.893Z,82.9
2022-10-07T04:56:25.094Z,82.8
2022-10-07T04:58:50.050Z,82.8
2022-10-07T05:01:15.029Z,83
2022-10-07T05:02:29.159Z,83.1
2022-10-07T05:03:43.278Z,83.1
2022-10-07T05:06:11.539Z,83.3
2022-10-07T05:07:25.654Z,83.4
2022-10-07T05:08:39.822Z,83.4
2022-10-07T05:09:53.942Z,83.2
2022-10-07T05:11:08.107Z,83.2
2022-10-07T05:12:18.960Z,83.3
2022-10-07T05:13:29.832Z,83.4
2022-10-07T05:14:43.934Z,83.5
2022-10-07T05:15:58.074Z,83.5
2022-10-07T05:17:12.229Z,83.7
2022-10-07T05:18:26.337Z,83.8
2022-10-07T05:20:54.566Z,84.1
2022-10-07T05:22:08.712Z,84.3
2022-10-07T05:23:22.836Z,83.9
2022-10-07T05:26:58.729Z,83.8
2022-10-07T05:28:12.834Z,83.7
2022-10-07T05:29:26.963Z,83.6
2022-10-07T05:31:55.186Z,83.7
2022-10-07T05:33:09.323Z,83.7
2022-10-07T05:34:23.441Z,83.7
2022-10-07T05:35:37.615Z,83.7
2022-10-07T05:36:51.726Z,83.8
2022-10-07T05:39:16.734Z,83.9
2022-10-07T05:44:09.933Z,83.5
2022-10-07T05:45:24.081Z,83.6
2022-10-07T05:49:06.523Z,83.8
2022-10-07T05:50:20.586Z,83.7
2022-10-07T05:51:34.744Z,83.8
2022-10-07T05:52:45.199Z,83.8
2022-10-07T05:53:56.080Z,84
2022-10-07T05:56:24.296Z,84.3
2022-10-07T05:57:38.420Z,84.3
2022-10-07T05:58:52.561Z,84.1
2022-10-07T06:00:06.692Z,84.1
2022-10-07T06:01:20.839Z,84.3
2022-10-07T06:03:49.032Z,84.5
2022-10-07T06:05:03.201Z,84.5
2022-10-07T06:06:14.059Z,84.5
2022-10-07T06:07:24.953Z,84.6
2022-10-07T06:08:39.084Z,84.8
2022-10-07T06:09:53.196Z,84.9
2022-10-07T06:12:21.425Z,84.9
2022-10-07T06:13:35.535Z,84.9
2022-10-07T06:17:17.939Z,84.8
2022-10-07T06:18:32.098Z,84.7
2022-10-07T06:19:42.972Z,84.5
2022-10-07T06:22:07.969Z,84.3
2022-10-07T06:23:22.052Z,84.3
2022-10-07T06:24:36.205Z,84.3
2022-10-07T06:25:50.290Z,84.3
2022-10-07T06:29:32.746Z,84.1
2022-10-07T06:30:46.843Z,84.3
2022-10-07T06:32:00.985Z,84.3
2022-10-07T06:35:36.797Z,84.5
2022-10-07T06:36:50.947Z,84.5
2022-10-07T06:38:05.114Z,84.5
2022-10-07T06:39:19.245Z,84.5
2022-10-07T06:41:47.452Z,84.9
2022-10-07T06:43:01.603Z,84.9
2022-10-07T06:44:15.756Z,84.8
2022-10-07T06:45:29.878Z,85
2022-10-07T06:46:40.696Z,84.9
2022-10-07T06:47:51.596Z,84.8
2022-10-07T06:49:05.684Z,84.7
2022-10-07T06:50:19.839Z,84.7
2022-10-07T06:51:33.966Z,84.6
2022-10-07T06:54:02.224Z,84.5
2022-10-07T06:55:16.358Z,84.5
2022-10-07T06:57:44.645Z,83.8
2022-10-07T07:00:09.598Z,83.5
2022-10-07T07:01:20.504Z,83.4
2022-10-07T07:06:16.986Z,82.8
2022-10-07T07:07:31.143Z,82.7
2022-10-07T07:09:59.351Z,82.9
2022-10-07T07:11:13.485Z,83.2
2022-10-07T07:12:27.603Z,83.3
2022-10-07T07:13:38.067Z,83.4
2022-10-07T07:14:48.939Z,83.5
2022-10-07T07:16:03.058Z,83
2022-10-07T07:17:17.183Z,82.9
2022-10-07T07:18:31.280Z,82.9
2022-10-07T07:22:13.697Z,82.7
2022-10-07T07:24:41.962Z,82.6
2022-10-07T07:25:56.112Z,82.5
2022-10-07T07:27:06.919Z,82.5
2022-10-07T07:28:17.834Z,82.6
2022-10-07T07:32:00.238Z,82.8
2022-10-07T07:33:14.314Z,82.6
2022-10-07T07:36:56.719Z,81.8
2022-10-07T07:38:10.825Z,81.8
2022-10-07T07:39:25.005Z,81.6
2022-10-07T07:41:46.669Z,81.4
2022-10-07T07:43:00.866Z,81.4
2022-10-07T07:52:53.863Z,80.9
2022-10-07T07:54:04.298Z,81.1
2022-10-07T07:55:15.185Z,81.4
2022-10-07T07:56:29.296Z,81.3
2022-10-07T07:57:43.398Z,81.2
2022-10-07T08:01:25.788Z,81
2022-10-07T08:02:39.942Z,80.8
2022-10-07T08:05:08.162Z,80.8
2022-10-07T08:06:22.340Z,81
2022-10-07T08:07:33.169Z,81
2022-10-07T08:11:12.281Z,80.3
2022-10-07T08:13:40.580Z,80.6
2022-10-07T08:16:08.792Z,80.4
2022-10-07T08:18:45.267Z,80.6
2022-10-07T08:19:56.157Z,80.6
2022-10-07T08:21:06.961Z,80.5
2022-10-07T08:22:21.186Z,80.8
2022-10-07T08:24:57.586Z,80.3
2022-10-07T08:26:11.677Z,80.3
2022-10-07T08:27:25.827Z,80.2
2022-10-07T08:29:54.060Z,80
2022-10-07T08:31:08.210Z,80
2022-10-07T08:32:19.055Z,80
2022-10-07T08:34:44.062Z,80.2
2022-10-07T08:35:58.201Z,80.1
2022-10-07T08:37:12.320Z,80.2
2022-10-07T08:38:26.419Z,80.3
2022-10-07T08:39:40.545Z,80.3
2022-10-07T08:40:54.681Z,80.1
2022-10-07T08:42:08.864Z,79.4
2022-10-07T08:43:22.947Z,79.3
2022-10-07T08:44:37.117Z,79.3
2022-10-07T08:49:27.042Z,79.4
2022-10-07T08:51:55.357Z,79.5
2022-10-07T08:54:23.604Z,79.5
2022-10-07T08:56:51.864Z,79.3
2022-10-07T08:59:16.868Z,79.1
2022-10-07T09:00:27.701Z,79
2022-10-07T09:01:41.881Z,79
2022-10-07T09:04:10.109Z,78.8
2022-10-07T09:05:24.256Z,78.6
2022-10-07T09:09:06.609Z,78.1
2022-10-07T09:11:34.871Z,78.2
2022-10-07T09:12:45.263Z,78
2022-10-07T09:13:56.159Z,77.7
2022-10-07T09:15:10.301Z,77.8
2022-10-07T09:16:24.460Z,77.9
2022-10-07T09:17:38.541Z,77.9
2022-10-07T09:18:52.712Z,77.9
2022-10-07T09:22:35.057Z,77.6
2022-10-07T09:23:49.218Z,78
2022-10-07T09:26:14.178Z,78.1
2022-10-07T09:28:39.209Z,78.1
2022-10-07T09:29:53.291Z,77.9
2022-10-07T09:31:07.433Z,77.5
2022-10-07T09:32:21.587Z,77.2
2022-10-07T09:34:49.799Z,77.2
2022-10-07T09:36:03.950Z,77.2
2022-10-07T09:37:18.079Z,77.1
2022-10-07T09:38:32.215Z,77.1
2022-10-07T09:39:43.104Z,77.2
2022-10-07T09:40:53.973Z,76.8
2022-10-07T09:43:22.209Z,77
2022-10-07T09:44:36.370Z,76.2
2022-10-07T09:45:50.474Z,76
2022-10-07T09:47:04.606Z,75.9
2022-10-07T09:48:18.675Z,75.5
2022-10-07T09:49:32.802Z,75.5
2022-10-07T09:50:46.940Z,75.6
2022-10-07T09:52:01.126Z,75.4
2022-10-07T09:54:22.859Z,74.8
2022-10-07T09:55:36.942Z,74.8
2022-10-07T09:56:51.114Z,74.9
2022-10-07T09:58:05.186Z,74.9
2022-10-07T09:59:19.332Z,74.8
2022-10-07T10:00:33.454Z,74.8
2022-10-07T10:01:47.580Z,73.7
2022-10-07T10:03:01.755Z,73.7
2022-10-07T10:05:30.001Z,74.1
2022-10-07T10:06:40.854Z,73.9
2022-10-07T10:07:51.748Z,73.7
2022-10-07T10:09:05.859Z,73.5
2022-10-07T10:12:48.220Z,73.8
2022-10-07T10:14:02.316Z,73.7
2022-10-07T10:17:44.738Z,72.4
2022-10-07T10:18:58.842Z,72.1
2022-10-07T10:20:09.760Z,72.3
2022-10-07T10:21:20.613Z,72.3
2022-10-07T10:22:34.742Z,71.5
2022-10-07T10:23:48.828Z,70.7
2022-10-07T10:25:02.975Z,70.4
2022-10-07T10:28:45.362Z,68.7
2022-10-07T10:32:27.733Z,65.2
2022-10-07T10:33:38.597Z,63.7
2022-10-07T10:34:49.472Z,61.7
2022-10-07T10:36:03.641Z,60.9
2022-10-07T10:38:31.887Z,60.3
2022-10-07T10:39:46.024Z,60.7
2022-10-07T10:41:00.122Z,61.4
2022-10-07T10:47:07.473Z,62.5
2022-10-07T10:50:46.651Z,62
2022-10-07T10:52:00.768Z,61.3
2022-10-07T10:53:14.911Z,61.6
2022-10-07T10:56:57.270Z,58.4
2022-10-07T10:58:11.394Z,58.6
2022-10-07T10:59:25.491Z,58
2022-10-07T11:01:47.229Z,56.7
2022-10-07T11:03:01.379Z,56.3
2022-10-07T11:04:15.484Z,56.9
2022-10-07T11:05:29.606Z,55.5
2022-10-07T11:06:43.754Z,55.1
2022-10-07T11:10:26.122Z,50.8
2022-10-07T11:14:05.277Z,49.6
2022-10-07T11:15:16.111Z,48.7
2022-10-07T11:16:30.307Z,48.6
2022-10-07T11:17:44.403Z,48.6
2022-10-07T11:18:58.543Z,47.2
2022-10-07T11:20:12.633Z,47.2
2022-10-07T11:21:26.800Z,45.6
2022-10-07T11:22:40.957Z,46.2
2022-10-07T11:26:23.305Z,43.5
2022-10-07T11:27:34.176Z,43.1
2022-10-07T11:29:59.189Z,43
2022-10-07T11:31:13.323Z,43.9
2022-10-07T11:37:23.937Z,42.4
2022-10-07T11:38:38.076Z,42.3
2022-10-07T11:39:52.219Z,41.8
2022-10-07T11:41:03.087Z,40.9
2022-10-07T11:42:13.953Z,41.6
2022-10-07T11:43:28.058Z,43.3
2022-10-07T11:44:42.176Z,43.3
2022-10-07T11:45:56.300Z,40.8
2022-10-07T11:47:10.427Z,41.6
2022-10-07T11:48:24.611Z,43.4
2022-10-07T11:49:38.690Z,41.4
2022-10-07T11:50:52.844Z,41.8
2022-10-07T11:54:31.918Z,42.1
2022-10-07T11:55:42.397Z,42.3
2022-10-07T11:59:24.747Z,42.4
2022-10-07T12:03:07.179Z,42.1
2022-10-07T12:04:21.312Z,43
2022-10-07T12:05:35.417Z,41.9
2022-10-07T12:14:07.812Z,40.4
2022-10-07T12:15:21.947Z,41.4
2022-10-07T12:20:18.414Z,40.9
2022-10-07T12:21:29.291Z,41.7
2022-10-07T12:22:40.131Z,41.3
2022-10-07T12:23:54.332Z,40.8
2022-10-07T12:28:50.788Z,40.9
2022-10-07T12:31:27.265Z,41.7
2022-10-07T12:33:52.315Z,43.1
2022-10-07T12:35:02.834Z,42.7
2022-10-07T12:37:39.239Z,43.6
2022-10-07T12:38:53.329Z,41.9
2022-10-07T12:40:07.508Z,42.8
2022-10-07T12:41:21.616Z,44.8
2022-10-07T12:42:35.744Z,43.5
2022-10-07T12:46:14.893Z,42.7
2022-10-07T12:47:25.755Z,42.6
2022-10-07T12:48:39.819Z,42.6
2022-10-07T12:51:08.088Z,45
2022-10-07T12:56:04.613Z,43.5
2022-10-07T12:58:32.910Z,43.8
2022-10-07T13:00:54.579Z,42.5
2022-10-07T13:04:36.974Z,44.2
2022-10-07T13:05:51.166Z,43.8
2022-10-07T13:08:19.401Z,44.1
2022-10-07T13:10:47.618Z,42.6
2022-10-07T13:12:01.755Z,42.8
2022-10-07T13:14:23.503Z,43.6
2022-10-07T13:15:37.617Z,44.4
2022-10-07T13:16:51.791Z,45.6
2022-10-07T13:19:20.050Z,44.9
2022-10-07T13:21:48.310Z,44.1
2022-10-07T13:23:02.382Z,43.1
2022-10-07T13:24:16.566Z,43.9
2022-10-07T13:25:30.701Z,44.8
2022-10-07T13:26:41.498Z,45.9
2022-10-07T13:29:06.530Z,45.5
2022-10-07T13:31:34.743Z,48.6
2022-10-07T13:32:48.891Z,46
2022-10-07T13:36:31.307Z,46.7
2022-10-07T13:38:59.538Z,44.7
2022-10-07T13:40:10.382Z,44
2022-10-07T13:41:20.875Z,44.6
2022-10-07T13:43:49.101Z,45.3
2022-10-07T13:46:17.350Z,45.5
2022-10-07T13:48:45.643Z,47.1
2022-10-07T13:51:13.885Z,44.4
2022-10-07T13:52:28.026Z,45.7
2022-10-07T13:53:38.834Z,46.4
2022-10-07T13:54:49.724Z,45.6
2022-10-07T13:56:03.866Z,46
2022-10-07T13:57:17.960Z,46.6
2022-10-07T13:59:46.257Z,44.5
2022-10-07T14:01:00.371Z,46.1
2022-10-07T14:02:14.523Z,45.9
2022-10-07T14:04:42.791Z,46.7
2022-10-07T14:07:07.736Z,45.6
2022-10-07T14:09:32.757Z,44.7
2022-10-07T14:10:46.855Z,44.6
2022-10-07T14:12:01.001Z,44.1
2022-10-07T14:13:15.162Z,45.9
2022-10-07T14:15:43.424Z,45.5
2022-10-07T14:16:57.529Z,44.6
2022-10-07T14:18:11.623Z,45.9
2022-10-07T14:19:25.773Z,44.5
2022-10-07T14:21:47.491Z,45.4
2022-10-07T14:26:44.042Z,46.3
2022-10-07T14:34:05.500Z,48.4
2022-10-07T14:35:15.928Z,48.4
2022-10-07T14:37:44.201Z,47.6
2022-10-07T14:38:58.346Z,49.2
2022-10-07T14:42:40.705Z,48.1
2022-10-07T14:43:54.901Z,49.4
2022-10-07T14:45:08.963Z,48.6
2022-10-07T14:46:23.139Z,47.7
2022-10-07T14:47:33.946Z,47.7
2022-10-07T14:48:44.857Z,48.7
2022-10-07T14:49:58.985Z,48.9
2022-10-07T14:52:27.198Z,48.7
2022-10-07T14:53:41.351Z,48.8
2022-10-07T14:54:55.455Z,51.4
2022-10-07T14:56:09.580Z,50.2
2022-10-07T14:58:37.892Z,50.4
2022-10-07T14:59:52.008Z,49.8
2022-10-07T15:01:02.873Z,50.8
2022-10-07T15:03:27.887Z,48.1
2022-10-07T15:04:41.958Z,47.5
2022-10-07T15:05:56.117Z,48.3
2022-10-07T15:07:10.270Z,48.7
2022-10-07T15:08:24.369Z,49
2022-10-07T15:09:38.507Z,50.9
2022-10-07T15:12:06.786Z,49.2
2022-10-07T15:13:20.902Z,49.6
2022-10-07T15:14:31.741Z,48.7
2022-10-07T15:15:42.583Z,48.8
2022-10-07T15:18:10.856Z,49
2022-10-07T15:19:25.033Z,50.1
2022-10-07T15:20:39.103Z,50.2
2022-10-07T15:21:53.296Z,50.4
2022-10-07T15:23:07.412Z,51.1
2022-10-07T15:24:21.551Z,51.3
2022-10-07T15:25:35.668Z,50.9
2022-10-07T15:29:11.520Z,51.2
2022-10-07T15:32:53.886Z,52.2
2022-10-07T15:35:22.160Z,55.5
2022-10-07T15:36:36.293Z,53.8
2022-10-07T15:37:50.415Z,53.7
2022-10-07T15:39:04.570Z,53.6
2022-10-07T15:40:18.630Z,52.8
2022-10-07T15:42:40.370Z,53.2
2022-10-07T15:47:36.924Z,55.2
2022-10-07T15:50:05.176Z,55
2022-10-07T15:51:19.280Z,54.7
2022-10-07T15:54:58.436Z,55.8
2022-10-07T15:57:22.991Z,57.1
2022-10-07T16:02:19.522Z,57.7
2022-10-07T16:04:47.759Z,58.1
2022-10-07T16:07:15.995Z,59.3
2022-10-07T16:08:26.892Z,59.2
2022-10-07T16:09:37.754Z,58.1
2022-10-07T16:10:51.874Z,59.7
2022-10-07T16:13:20.091Z,59.7
2022-10-07T16:14:34.256Z,60.1
2022-10-07T16:15:48.339Z,60.3
2022-10-07T16:17:02.491Z,60.5
2022-10-07T16:18:16.597Z,59.1
2022-10-07T16:19:30.732Z,61
2022-10-07T16:20:44.920Z,61.5
2022-10-07T16:21:55.758Z,61.5
2022-10-07T16:23:06.588Z,61
2022-10-07T16:25:34.838Z,61.8
2022-10-07T16:28:03.125Z,61.2
2022-10-07T16:29:17.283Z,61.5
2022-10-07T16:31:45.551Z,61.9
2022-10-07T16:32:59.641Z,60.9
2022-10-07T16:34:13.748Z,62.3
2022-10-07T16:37:49.617Z,62.4
2022-10-07T16:39:03.737Z,62.6
2022-10-07T16:41:32.030Z,62.7
2022-10-07T16:45:22.584Z,62.9
2022-10-07T16:46:36.706Z,63.2
2022-10-07T16:47:47.211Z,62.5
2022-10-07T16:50:12.261Z,63.8
2022-10-07T16:51:26.348Z,63.8
2022-10-07T16:52:40.462Z,63.4
2022-10-07T16:53:54.595Z,63.5
2022-10-07T16:55:08.714Z,63.4
2022-10-07T16:58:51.114Z,63.5
2022-10-07T17:00:05.251Z,64.3
2022-10-07T17:01:19.359Z,64.5
2022-10-07T17:02:30.281Z,64.8
2022-10-07T17:04:54.805Z,65.5
2022-10-07T17:06:08.959Z,65.2
2022-10-07T17:09:51.327Z,65.9
2022-10-07T17:11:05.453Z,65.8
2022-10-07T17:13:33.722Z,66
2022-10-07T17:14:47.834Z,66.2
2022-10-07T17:15:58.726Z,66.4
2022-10-07T17:17:09.528Z,66.8
2022-10-07T17:20:51.915Z,66.8
2022-10-07T17:23:20.191Z,66.6
2022-10-07T17:24:34.309Z,65.8
2022-10-07T17:28:16.685Z,66.9
2022-10-07T17:30:38.472Z,67.5
2022-10-07T17:33:06.729Z,67.6
2022-10-07T17:34:20.861Z,68
2022-10-07T17:35:34.958Z,68
2022-10-07T17:36:49.103Z,68.1
2022-10-07T17:38:03.257Z,68.1
2022-10-07T17:39:17.362Z,67.9
2022-10-07T17:40:31.508Z,67.9
2022-10-07T17:41:45.635Z,68.3
2022-10-07T17:45:21.478Z,68.5
2022-10-07T17:46:35.569Z,68.8
2022-10-07T17:47:49.724Z,68.9
2022-10-07T17:49:03.833Z,68.7
2022-10-07T17:50:17.974Z,68.9
2022-10-07T17:52:46.262Z,69.3
2022-10-07T17:56:25.395Z,69.6
2022-10-07T17:57:35.813Z,69.8
2022-10-07T17:58:49.938Z,70
2022-10-07T18:00:04.065Z,70
2022-10-07T18:02:32.284Z,70.2
2022-10-07T18:06:14.698Z,70.2
2022-10-07T18:07:28.849Z,70.3
2022-10-07T18:08:42.969Z,70.4
2022-10-07T18:09:53.873Z,70.4
2022-10-07T18:11:04.663Z,70.5
2022-10-07T18:12:18.800Z,70.6
2022-10-07T18:18:29.439Z,71.2
2022-10-07T18:19:43.608Z,71.2
2022-10-07T18:22:11.861Z,71.2
2022-10-07T18:23:22.723Z,71.6
2022-10-07T18:24:33.539Z,71.8
2022-10-07T18:25:47.730Z,72.1
2022-10-07T18:27:01.849Z,72.2
2022-10-07T18:30:44.202Z,72.3
2022-10-07T18:31:58.343Z,72.3
2022-10-07T18:33:12.492Z,72.2
2022-10-07T18:34:26.633Z,72.7
2022-10-07T18:35:40.757Z,72.3
2022-10-07T18:36:51.187Z,72.5
2022-10-07T18:39:16.179Z,72.6
2022-10-07T18:41:44.385Z,72.7
2022-10-07T18:42:58.527Z,72.9
2022-10-07T18:44:12.701Z,73
2022-10-07T18:45:26.835Z,73
2022-10-07T18:46:40.923Z,73.3
2022-10-07T18:47:55.072Z,72.9
2022-10-07T18:51:30.943Z,72.7
2022-10-07T18:53:59.150Z,72.5
2022-10-07T18:56:27.402Z,72.4
2022-10-07T18:57:41.589Z,72.1
2022-10-07T18:58:55.699Z,72
2022-10-07T19:00:09.780Z,72.1
2022-10-07T19:01:23.962Z,72.1
2022-10-07T19:03:48.965Z,71.5
2022-10-07T19:04:59.774Z,71.2
2022-10-07T19:06:13.909Z,71.2
2022-10-07T19:07:28.072Z,71.2
2022-10-07T19:09:56.303Z,71.4
2022-10-07T19:12:24.544Z,71.9
2022-10-07T19:13:38.674Z,71.7
2022-10-07T19:14:52.813Z,72
2022-10-07T19:16:06.983Z,72.2
2022-10-07T19:17:17.792Z,72.7
2022-10-07T19:18:28.654Z,72.7
2022-10-07T19:19:42.784Z,72.7
2022-10-07T19:20:56.938Z,72.8
2022-10-07T19:22:11.084Z,72.8
2022-10-07T19:24:39.337Z,73.2
2022-10-07T19:27:07.595Z,73.4
2022-10-07T19:29:35.808Z,73.7
2022-10-07T19:30:46.242Z,73.9
2022-10-07T19:31:57.165Z,74.1
2022-10-07T19:33:11.237Z,74.2
2022-10-07T19:34:25.429Z,74
2022-10-07T19:35:39.503Z,74.2
2022-10-07T19:36:53.641Z,74.3
2022-10-07T19:38:07.783Z,74.5
2022-10-07T19:39:21.934Z,74.4
2022-10-07T19:40:36.011Z,74.6
2022-10-07T19:41:50.135Z,74.5
2022-10-07T19:43:04.267Z,74.6
2022-10-07T19:44:15.139Z,74.6
2022-10-07T19:45:26.020Z,74.8
2022-10-07T19:47:54.287Z,74.7
2022-10-07T19:50:22.530Z,75.2
2022-10-07T19:51:36.668Z,75
2022-10-07T19:52:50.839Z,75.2
2022-10-07T19:54:04.902Z,75.3
2022-10-07T19:56:33.179Z,74.6
2022-10-07T19:58:54.938Z,73.3
2022-10-07T20:00:09.048Z,73.2
2022-10-07T20:02:37.341Z,73.7
2022-10-07T20:03:51.421Z,73.5
2022-10-07T20:05:05.575Z,73.2
2022-10-07T20:06:19.702Z,72.3
2022-10-07T20:07:33.822Z,72.1
2022-10-07T20:11:12.944Z,71.3
2022-10-07T20:12:23.794Z,71.4
2022-10-07T20:14:52.078Z,70.9
2022-10-07T20:16:06.178Z,70.7
2022-10-07T20:17:20.323Z,70.6
2022-10-07T20:19:48.588Z,70.7
2022-10-07T20:21:02.684Z,70.7
2022-10-07T20:23:30.952Z,70.8
2022-10-07T20:24:41.862Z,70.3
2022-10-07T20:27:06.813Z,70.6
2022-10-07T20:28:20.950Z,70.5
2022-10-07T20:29:35.064Z,70.9
2022-10-07T20:30:49.199Z,70.8
2022-10-07T20:32:03.355Z,70.6
2022-10-07T20:34:31.573Z,70.4
2022-10-07T20:35:45.727Z,70.5
2022-10-07T20:36:59.837Z,70.4
2022-10-07T20:38:10.700Z,70.5
2022-10-07T20:40:35.727Z,70.5
2022-10-07T20:41:49.841Z,70.5
2022-10-07T20:43:03.930Z,70.6
2022-10-07T20:44:18.117Z,70.8
2022-10-07T20:46:46.378Z,71
2022-10-07T20:48:00.515Z,71.6
2022-10-07T20:49:14.637Z,71.7
2022-10-07T20:50:28.747Z,71.7
2022-10-07T20:51:39.604Z,72
2022-10-07T20:52:50.466Z,72.4
2022-10-07T20:54:04.614Z,73
2022-10-07T20:55:18.813Z,73
2022-10-07T20:56:41.081Z,72.8
2022-10-07T20:57:55.205Z,73.2
2022-10-07T20:59:09.319Z,73.3
2022-10-07T21:00:23.416Z,73.3
2022-10-07T21:01:37.529Z,73.5
2022-10-07T21:02:51.662Z,73.4
2022-10-07T21:05:13.440Z,73.8
2022-10-07T21:06:27.509Z,73.8
2022-10-07T21:07:41.675Z,73.8
2022-10-07T21:08:55.790Z,73.6
2022-10-07T21:10:09.902Z,73.6
2022-10-07T21:11:24.040Z,73.3
2022-10-07T21:12:38.275Z,74
2022-10-07T21:14:00.502Z,74
2022-10-07T21:15:14.621Z,74.2
2022-10-07T21:16:25.495Z,74.3
2022-10-07T21:17:36.387Z,73.7
2022-10-07T21:20:04.589Z,73.7
2022-10-07T21:21:18.751Z,73.5
2022-10-07T21:28:43.549Z,71
2022-10-07T21:29:54.414Z,70.9
2022-10-07T21:31:04.824Z,70.9
2022-10-07T21:37:15.428Z,70.5
2022-10-07T21:38:29.614Z,70.5
2022-10-07T21:41:06.042Z,70.1
2022-10-07T21:42:16.938Z,70.1
2022-10-07T21:44:41.899Z,70.1
2022-10-07T21:45:56.060Z,70.3
2022-10-07T21:47:10.131Z,70.3
2022-10-07T21:48:24.397Z,70
2022-10-07T21:49:46.611Z,69.8
2022-10-07T21:51:00.704Z,69.9
2022-10-07T21:52:14.839Z,69.7
2022-10-07T21:53:28.982Z,69.7
2022-10-07T21:54:39.887Z,69.6
2022-10-07T21:55:50.700Z,69.5
2022-10-07T21:57:04.878Z,69.7
2022-10-07T22:02:01.416Z,69.8
2022-10-07T22:04:29.631Z,69.9
2022-10-07T22:06:57.859Z,70.3
2022-10-07T22:09:19.645Z,70.9
2022-10-07T22:10:33.768Z,71.2
2022-10-07T22:13:02.012Z,71.9
2022-10-07T22:14:16.110Z,72
2022-10-07T22:15:30.247Z,72.3
2022-10-07T22:16:44.417Z,72.5
2022-10-07T22:17:58.495Z,72.7
2022-10-07T22:19:12.601Z,72.8
2022-10-07T22:20:26.779Z,72.9
2022-10-07T22:21:37.614Z,73
2022-10-07T22:22:48.502Z,73.3
2022-10-07T22:24:02.595Z,73.6
2022-10-07T22:25:16.782Z,73.9
2022-10-07T22:26:30.845Z,74.1
2022-10-07T22:27:44.991Z,74.1
2022-10-07T22:28:59.170Z,74
2022-10-07T22:30:13.238Z,74.3
2022-10-07T22:32:41.535Z,74.4
2022-10-07T22:35:06.514Z,74.8
2022-10-07T22:36:17.391Z,74.7
2022-10-07T22:37:31.551Z,74.6
2022-10-07T22:38:45.614Z,74.7
2022-10-07T22:43:42.144Z,75.4
2022-10-07T22:44:56.273Z,75.4
2022-10-07T22:48:35.416Z,75.4
2022-10-07T22:49:46.293Z,75.6
2022-10-07T22:51:00.435Z,75.7
2022-10-07T22:52:14.549Z,75.9
2022-10-07T22:53:28.660Z,75.9
2022-10-07T22:55:56.938Z,76.1